createdAt,value
2023-01-13T00:00:10.828Z,8.09
2023-01-13T00:02:41.882Z,8.12
2023-01-13T00:05:10.095Z,8.12
2023-01-13T00:07:38.536Z,8.15
2023-01-13T00:10:07.273Z,8.15
2023-01-13T00:12:34.341Z,8.15
2023-01-13T00:15:01.479Z,8.15
2023-01-13T00:17:28.736Z,8.21
2023-01-13T00:19:56.751Z,8.15
2023-01-13T00:22:26.104Z,8.21
2023-01-13T00:24:53.404Z,8.19
2023-01-13T00:27:20.415Z,8.20
2023-01-13T00:29:47.602Z,8.24
2023-01-13T00:32:20.300Z,8.21
2023-01-13T00:34:47.714Z,8.21
2023-01-13T00:37:15.439Z,8.23
2023-01-13T00:39:42.482Z,8.19
2023-01-13T00:42:28.128Z,8.22
2023-01-13T00:44:58.140Z,8.17
2023-01-13T00:47:46.560Z,8.22
2023-01-13T00:50:13.566Z,8.23
2023-01-13T00:52:45.841Z,8.28
2023-01-13T00:55:13.435Z,8.26
2023-01-13T00:57:54.822Z,8.27
2023-01-13T01:00:37.741Z,8.25
2023-01-13T01:03:15.908Z,8.18
2023-01-13T01:05:47.763Z,8.18
2023-01-13T01:08:14.784Z,8.23
2023-01-13T01:10:43.313Z,8.26
2023-01-13T01:13:30.932Z,8.26
2023-01-13T01:16:23.901Z,8.27
2023-01-13T01:18:58.807Z,8.26
2023-01-13T01:21:42.629Z,8.24
2023-01-13T01:24:18.732Z,8.25
2023-01-13T01:26:48.142Z,8.25
2023-01-13T01:29:15.800Z,8.28
2023-01-13T01:31:43.444Z,8.22
2023-01-13T01:34:13.660Z,8.28
2023-01-13T01:36:43.912Z,8.26
2023-01-13T01:39:10.975Z,8.30
2023-01-13T01:41:38.299Z,8.29
2023-01-13T01:44:42.514Z,8.30
2023-01-13T01:47:11.528Z,8.31
2023-01-13T01:49:39.444Z,8.31
2023-01-13T01:52:13.732Z,8.35
2023-01-13T01:55:05.827Z,8.29
2023-01-13T01:57:59.140Z,8.32
2023-01-13T02:00:44.033Z,8.33
2023-01-13T02:03:11.449Z,8.33
2023-01-13T02:05:39.343Z,8.36
2023-01-13T02:08:07.283Z,8.37
2023-01-13T02:10:34.410Z,8.38
2023-01-13T02:13:04.145Z,8.34
2023-01-13T02:16:13.417Z,8.39
2023-01-13T02:18:52.370Z,8.37
2023-01-13T02:21:25.787Z,8.40
2023-01-13T02:24:17.709Z,8.38
2023-01-13T02:27:10.900Z,8.37
2023-01-13T02:30:19.144Z,8.38
2023-01-13T02:32:54.924Z,8.39
2023-01-13T02:35:28.384Z,8.32
2023-01-13T02:37:57.135Z,8.38
2023-01-13T02:40:45.735Z,8.37
2023-01-13T02:43:47.795Z,8.37
2023-01-13T02:46:26.084Z,8.39
2023-01-13T02:48:55.004Z,8.37
2023-01-13T02:51:24.616Z,8.40
2023-01-13T02:53:59.898Z,8.38
2023-01-13T02:56:30.333Z,8.39
2023-01-13T02:58:58.768Z,8.39
2023-01-13T03:01:25.877Z,8.38
2023-01-13T03:03:53.134Z,8.39
2023-01-13T03:06:37.819Z,8.35
2023-01-13T03:09:23.183Z,8.34
2023-01-13T03:12:04.638Z,8.34
2023-01-13T03:14:40.684Z,8.39
2023-01-13T03:17:25.147Z,8.35
2023-01-13T03:20:08.361Z,8.37
2023-01-13T03:23:00.729Z,8.38
2023-01-13T03:25:32.763Z,8.40
2023-01-13T03:28:03.677Z,8.41
2023-01-13T03:30:53.361Z,8.32
2023-01-13T03:33:36.832Z,8.31
2023-01-13T03:36:08.713Z,8.37
2023-01-13T03:38:39.802Z,8.38
2023-01-13T03:41:14.025Z,8.32
2023-01-13T03:44:20.924Z,8.33
2023-01-13T03:47:21.727Z,8.32
2023-01-13T03:49:57.885Z,8.34
2023-01-13T03:52:47.160Z,8.33
2023-01-13T03:55:19.398Z,8.38
2023-01-13T03:57:55.097Z,8.33
2023-01-13T04:00:25.547Z,8.37
2023-01-13T04:03:03.511Z,8.33
2023-01-13T04:05:30.346Z,8.36
2023-01-13T04:08:00.221Z,8.33
2023-01-13T04:10:37.571Z,8.34
2023-01-13T04:13:11.195Z,8.38
2023-01-13T04:15:40.749Z,8.37
2023-01-13T04:18:13.554Z,8.37
2023-01-13T04:20:41.214Z,8.32
2023-01-13T04:23:19.262Z,8.33
2023-01-13T04:26:17.266Z,8.32
2023-01-13T04:28:50.059Z,8.35
2023-01-13T04:31:35.829Z,8.36
2023-01-13T04:34:08.751Z,8.32
2023-01-13T04:36:36.019Z,8.31
2023-01-13T04:39:06.101Z,8.30
2023-01-13T04:41:54.768Z,8.26
2023-01-13T04:44:24.209Z,8.22
2023-01-13T04:46:51.277Z,8.23
2023-01-13T04:49:28.676Z,8.22
2023-01-13T04:51:55.743Z,8.16
2023-01-13T04:54:27.840Z,8.12
2023-01-13T04:56:54.834Z,8.10
2023-01-13T04:59:30.297Z,8.10
2023-01-13T05:02:08.643Z,8.12
2023-01-13T05:04:38.741Z,8.13
2023-01-13T05:07:07.089Z,8.17
2023-01-13T05:09:33.966Z,8.11
2023-01-13T05:12:22.633Z,8.19
2023-01-13T05:15:12.955Z,8.21
2023-01-13T05:17:40.428Z,8.21
2023-01-13T05:20:10.421Z,8.25
2023-01-13T05:22:55.900Z,8.28
2023-01-13T05:25:24.534Z,8.49
2023-01-13T05:27:53.538Z,8.66
2023-01-13T05:30:21.787Z,8.59
2023-01-13T05:32:48.791Z,8.61
2023-01-13T05:35:16.264Z,8.63
2023-01-13T05:37:44.229Z,8.59
2023-01-13T05:40:32.440Z,8.53
2023-01-13T05:43:25.677Z,8.47
2023-01-13T05:46:01.032Z,8.45
2023-01-13T05:48:31.985Z,8.39
2023-01-13T05:50:58.894Z,8.37
2023-01-13T05:53:25.794Z,8.32
2023-01-13T05:55:53.054Z,8.28
2023-01-13T05:58:21.210Z,8.23
2023-01-13T06:00:48.215Z,8.14
2023-01-13T06:03:16.236Z,8.13
2023-01-13T06:05:43.273Z,8.07
2023-01-13T06:08:09.999Z,8.00
2023-01-13T06:10:39.288Z,7.84
2023-01-13T06:13:06.046Z,7.75
2023-01-13T06:15:33.002Z,7.56
2023-01-13T06:18:03.011Z,7.44
2023-01-13T06:20:32.757Z,7.31
2023-01-13T06:22:59.734Z,7.30
2023-01-13T06:25:46.587Z,7.31
2023-01-13T06:28:13.314Z,7.32
2023-01-13T06:30:43.922Z,7.44
2023-01-13T06:33:14.326Z,7.55
2023-01-13T06:35:45.597Z,7.47
2023-01-13T06:38:14.270Z,7.53
2023-01-13T06:40:42.471Z,7.58
2023-01-13T06:43:16.571Z,7.60
2023-01-13T06:45:54.885Z,7.60
2023-01-13T06:48:33.790Z,7.58
2023-01-13T06:51:05.371Z,7.66
2023-01-13T06:53:32.359Z,7.66
2023-01-13T06:55:59.569Z,7.60
2023-01-13T06:58:26.447Z,7.62
2023-01-13T07:00:53.748Z,7.66
2023-01-13T07:03:20.609Z,7.68
2023-01-13T07:05:54.977Z,7.70
2023-01-13T07:08:23.011Z,7.68
2023-01-13T07:10:50.053Z,7.70
2023-01-13T07:13:35.616Z,7.75
2023-01-13T07:16:05.826Z,7.76
2023-01-13T07:18:34.469Z,7.77
2023-01-13T07:21:11.043Z,7.76
2023-01-13T07:23:41.901Z,7.81
2023-01-13T07:26:09.609Z,7.83
2023-01-13T07:28:36.805Z,7.84
2023-01-13T07:31:03.533Z,7.82
2023-01-13T07:33:33.519Z,7.89
2023-01-13T07:36:02.892Z,7.95
2023-01-13T07:38:30.920Z,7.94
2023-01-13T07:40:57.678Z,7.92
2023-01-13T07:43:33.782Z,7.91
2023-01-13T07:46:05.388Z,7.94
2023-01-13T07:48:33.745Z,7.96
2023-01-13T07:51:05.283Z,7.98
2023-01-13T07:53:32.037Z,7.97
2023-01-13T07:55:59.431Z,7.99
2023-01-13T07:58:27.484Z,8.04
2023-01-13T08:00:54.990Z,8.06
2023-01-13T08:03:22.574Z,8.05
2023-01-13T08:05:49.286Z,8.06
2023-01-13T08:08:18.384Z,8.10
2023-01-13T08:10:45.239Z,8.12
2023-01-13T08:13:20.104Z,8.09
2023-01-13T08:15:52.741Z,8.09
2023-01-13T08:18:22.452Z,8.12
2023-01-13T08:20:52.826Z,8.11
2023-01-13T08:23:20.480Z,8.09
2023-01-13T08:25:47.581Z,8.05
2023-01-13T08:28:15.898Z,8.13
2023-01-13T08:30:42.846Z,8.14
2023-01-13T08:33:11.307Z,8.18
2023-01-13T08:35:39.673Z,8.21
2023-01-13T08:38:07.163Z,8.16
2023-01-13T08:40:34.675Z,8.16
2023-01-13T08:43:03.385Z,8.16
2023-01-13T08:45:30.646Z,8.17
2023-01-13T08:47:59.141Z,8.15
2023-01-13T08:50:26.785Z,8.16
2023-01-13T08:52:54.029Z,8.19
2023-01-13T08:55:21.182Z,8.16
2023-01-13T08:57:48.315Z,8.18
2023-01-13T09:00:21.974Z,8.11
2023-01-13T09:02:49.233Z,8.12
2023-01-13T09:05:17.864Z,8.12
2023-01-13T09:07:46.974Z,8.10
2023-01-13T09:10:13.818Z,8.07
2023-01-13T09:12:59.722Z,8.06
2023-01-13T09:15:26.844Z,8.00
2023-01-13T09:17:53.773Z,8.08
2023-01-13T09:20:20.727Z,8.11
2023-01-13T09:22:47.471Z,8.08
2023-01-13T09:25:14.172Z,8.09
2023-01-13T09:27:40.941Z,8.10
2023-01-13T09:30:08.865Z,8.01
2023-01-13T09:32:35.849Z,8.06
2023-01-13T09:35:06.531Z,8.07
2023-01-13T09:37:36.301Z,8.06
2023-01-13T09:40:13.246Z,8.08
2023-01-13T09:43:00.558Z,8.06
2023-01-13T09:45:35.988Z,8.09
2023-01-13T09:48:24.314Z,8.00
2023-01-13T09:50:55.813Z,7.98
2023-01-13T09:53:26.831Z,7.97
2023-01-13T09:55:53.976Z,7.96
2023-01-13T09:58:21.251Z,7.91
2023-01-13T10:01:12.688Z,7.93
2023-01-13T10:03:42.238Z,7.91
2023-01-13T10:06:24.641Z,7.93
2023-01-13T10:08:51.365Z,7.95
2023-01-13T10:11:41.939Z,8.02
2023-01-13T10:14:20.310Z,8.10
2023-01-13T10:17:04.148Z,8.12
2023-01-13T10:19:40.358Z,8.11
2023-01-13T10:22:42.214Z,8.15
2023-01-13T10:25:20.501Z,8.22
2023-01-13T10:27:51.892Z,8.26
2023-01-13T10:30:31.412Z,8.24
2023-01-13T10:33:10.547Z,8.27
2023-01-13T10:36:07.943Z,8.19
2023-01-13T10:38:34.622Z,8.19
2023-01-13T10:41:06.620Z,8.14
2023-01-13T10:43:33.360Z,8.10
2023-01-13T10:46:04.289Z,8.10
2023-01-13T10:48:43.100Z,8.17
2023-01-13T10:51:31.029Z,8.18
2023-01-13T10:54:14.866Z,8.15
2023-01-13T10:56:43.868Z,8.15
2023-01-13T10:59:19.720Z,8.12
2023-01-13T11:02:03.798Z,8.12
2023-01-13T11:04:41.023Z,8.09
2023-01-13T11:07:31.071Z,8.15
2023-01-13T11:10:17.209Z,8.21
2023-01-13T11:12:54.355Z,8.22
2023-01-13T11:15:26.689Z,8.23
2023-01-13T11:18:00.833Z,8.19
2023-01-13T11:20:34.346Z,8.21
2023-01-13T11:23:04.456Z,8.21
2023-01-13T11:25:43.664Z,8.23
2023-01-13T11:28:44.942Z,8.23
2023-01-13T11:31:19.503Z,8.18
2023-01-13T11:33:57.620Z,8.14
2023-01-13T11:36:46.144Z,8.19
2023-01-13T11:39:53.942Z,8.38
2023-01-13T11:42:33.566Z,8.52
2023-01-13T11:45:19.781Z,8.59
2023-01-13T11:47:48.796Z,8.72
2023-01-13T11:50:45.133Z,8.80
2023-01-13T11:53:30.018Z,8.92
2023-01-13T11:56:15.524Z,9.04
2023-01-13T11:59:19.843Z,9.11
2023-01-13T12:01:58.738Z,9.15
2023-01-13T12:04:33.350Z,9.17
2023-01-13T12:07:20.221Z,9.14
2023-01-13T12:10:15.514Z,9.09
2023-01-13T12:12:54.744Z,8.97
2023-01-13T12:15:21.858Z,8.94
2023-01-13T12:18:07.579Z,8.92
2023-01-13T12:20:58.649Z,8.94
2023-01-13T12:23:58.248Z,8.89
2023-01-13T12:26:25.023Z,8.85
2023-01-13T12:29:25.592Z,8.82
2023-01-13T12:31:52.619Z,8.89
2023-01-13T12:34:31.180Z,9.07
2023-01-13T12:37:29.585Z,9.16
2023-01-13T12:40:19.998Z,9.11
2023-01-13T12:43:19.861Z,9.07
2023-01-13T12:45:46.603Z,9.04
2023-01-13T12:48:53.327Z,9.07
2023-01-13T12:51:24.869Z,9.09
2023-01-13T12:53:52.006Z,9.18
2023-01-13T12:56:24.690Z,9.18
2023-01-13T12:58:51.438Z,9.17
2023-01-13T13:01:18.847Z,9.23
2023-01-13T13:04:08.501Z,9.18
2023-01-13T13:06:36.810Z,9.10
2023-01-13T13:09:28.529Z,9.01
2023-01-13T13:11:58.244Z,8.89
2023-01-13T13:14:48.274Z,8.92
2023-01-13T13:17:25.414Z,8.89
2023-01-13T13:19:52.345Z,8.90
2023-01-13T13:22:38.238Z,8.82
2023-01-13T13:25:04.941Z,8.86
2023-01-13T13:27:31.603Z,8.88
2023-01-13T13:30:02.672Z,8.93
2023-01-13T13:32:54.511Z,8.86
2023-01-13T13:35:43.434Z,8.75
2023-01-13T13:39:07.392Z,8.71
2023-01-13T13:41:54.888Z,8.72
2023-01-13T13:44:58.440Z,8.84
2023-01-13T13:47:25.296Z,8.72
2023-01-13T13:49:54.563Z,8.68
2023-01-13T13:52:26.387Z,8.65
2023-01-13T13:54:56.907Z,8.65
2023-01-13T13:57:33.075Z,8.63
2023-01-13T14:00:00.290Z,8.60
2023-01-13T14:02:30.206Z,8.66
2023-01-13T14:05:20.693Z,8.77
2023-01-13T14:08:00.676Z,8.83
2023-01-13T14:10:36.436Z,8.79
2023-01-13T14:13:13.639Z,8.70
2023-01-13T14:15:41.255Z,8.65
2023-01-13T14:18:17.572Z,8.61
2023-01-13T14:20:55.410Z,8.56
2023-01-13T14:26:27.349Z,8.50
2023-01-13T14:28:55.377Z,8.47
2023-01-13T14:31:22.349Z,8.50
2023-01-13T14:33:51.087Z,8.46
2023-01-13T14:36:20.695Z,8.46
2023-01-13T14:38:49.973Z,8.45
2023-01-13T14:41:26.115Z,8.45
2023-01-13T14:43:55.953Z,8.38
2023-01-13T14:46:25.414Z,8.42
2023-01-13T14:48:54.677Z,8.33
2023-01-13T14:51:24.050Z,8.39
2023-01-13T14:53:51.198Z,8.31
2023-01-13T14:56:47.401Z,8.32
2023-01-13T14:59:51.726Z,8.31
2023-01-13T15:02:31.120Z,8.26
2023-01-13T15:05:18.960Z,8.28
2023-01-13T15:08:15.044Z,8.22
2023-01-13T15:11:05.326Z,8.15
2023-01-13T15:13:33.540Z,8.17
2023-01-13T15:16:21.942Z,8.27
2023-01-13T15:18:48.948Z,8.22
2023-01-13T15:21:16.356Z,8.23
2023-01-13T15:23:43.736Z,8.23
2023-01-13T15:26:20.052Z,8.21
2023-01-13T15:28:47.254Z,8.22
2023-01-13T15:31:14.016Z,8.25
2023-01-13T15:33:40.872Z,8.24
2023-01-13T15:36:17.814Z,8.23
2023-01-13T15:38:44.522Z,8.17
2023-01-13T15:41:11.762Z,8.24
2023-01-13T15:43:58.099Z,8.27
2023-01-13T15:46:40.124Z,8.24
2023-01-13T15:49:14.223Z,8.21
2023-01-13T15:51:41.061Z,8.19
2023-01-13T15:54:08.673Z,8.23
2023-01-13T15:56:39.071Z,8.25
2023-01-13T15:59:14.623Z,8.21
2023-01-13T16:01:41.439Z,8.23
2023-01-13T16:04:09.635Z,8.26
2023-01-13T16:06:37.328Z,8.29
2023-01-13T16:09:04.985Z,8.26
2023-01-13T16:11:31.801Z,8.23
2023-01-13T16:13:58.768Z,8.29
2023-01-13T16:16:29.644Z,8.25
2023-01-13T16:18:56.611Z,8.21
2023-01-13T16:21:23.957Z,8.20
2023-01-13T16:23:53.251Z,8.14
2023-01-13T16:26:33.041Z,8.13
2023-01-13T16:29:01.184Z,8.15
2023-01-13T16:31:32.110Z,8.15
2023-01-13T16:34:01.093Z,8.15
2023-01-13T16:36:29.890Z,8.09
2023-01-13T16:38:57.524Z,8.10
2023-01-13T16:41:27.013Z,8.14
2023-01-13T16:43:53.985Z,8.07
2023-01-13T16:46:26.203Z,8.08
2023-01-13T16:48:54.992Z,8.08
2023-01-13T16:51:25.306Z,8.09
2023-01-13T16:53:52.272Z,8.03
2023-01-13T16:56:27.675Z,8.06
2023-01-13T16:58:56.933Z,8.06
2023-01-13T17:01:28.219Z,8.07
2023-01-13T17:03:55.826Z,7.98
2023-01-13T17:06:33.634Z,8.01
2023-01-13T17:09:21.434Z,7.98
2023-01-13T17:11:48.431Z,8.04
2023-01-13T17:14:18.991Z,8.00
2023-01-13T17:16:47.465Z,7.96
2023-01-13T17:19:14.854Z,7.97
2023-01-13T17:21:42.387Z,7.94
2023-01-13T17:24:10.742Z,7.96
2023-01-13T17:26:40.211Z,7.96
2023-01-13T17:29:10.305Z,7.92
2023-01-13T17:31:37.386Z,7.93
2023-01-13T17:34:07.593Z,7.93
2023-01-13T17:36:34.602Z,7.92
2023-01-13T17:39:01.658Z,7.85
2023-01-13T17:41:28.705Z,7.85
2023-01-13T17:43:55.749Z,7.80
2023-01-13T17:46:23.236Z,7.82
2023-01-13T17:48:51.213Z,7.79
2023-01-13T17:51:19.337Z,7.81
2023-01-13T17:53:46.671Z,7.79
2023-01-13T17:56:14.932Z,7.81
2023-01-13T17:58:41.918Z,7.74
2023-01-13T18:01:10.902Z,7.68
2023-01-13T18:03:38.422Z,7.62
2023-01-13T18:06:06.869Z,7.64
2023-01-13T18:08:33.887Z,7.66
2023-01-13T18:11:02.889Z,7.67
2023-01-13T18:13:31.699Z,7.67
2023-01-13T18:16:13.219Z,7.66
2023-01-13T18:18:43.085Z,7.66
2023-01-13T18:21:37.709Z,7.63
2023-01-13T18:24:24.198Z,7.83
2023-01-13T18:27:10.027Z,7.87
2023-01-13T18:29:38.184Z,7.77
2023-01-13T18:32:07.651Z,7.78
2023-01-13T18:34:37.940Z,7.72
2023-01-13T18:37:06.297Z,7.70
2023-01-13T18:39:33.275Z,7.70
2023-01-13T18:42:19.148Z,7.69
2023-01-13T18:44:48.454Z,7.67
2023-01-13T18:47:15.475Z,7.64
2023-01-13T18:49:42.464Z,7.64
2023-01-13T18:52:09.249Z,7.60
2023-01-13T18:54:36.191Z,7.61
2023-01-13T18:57:03.231Z,7.64
2023-01-13T18:59:31.199Z,7.63
2023-01-13T19:01:58.752Z,7.62
2023-01-13T19:04:25.860Z,7.57
2023-01-13T19:07:00.195Z,7.61
2023-01-13T19:09:28.879Z,7.61
2023-01-13T19:12:02.411Z,7.60
2023-01-13T19:14:40.456Z,7.61
2023-01-13T19:17:10.209Z,7.61
2023-01-13T19:19:50.994Z,7.58
2023-01-13T19:22:23.160Z,7.58
2023-01-13T19:24:50.744Z,7.58
2023-01-13T19:27:19.271Z,7.54
2023-01-13T19:29:52.382Z,7.58
2023-01-13T19:32:21.955Z,7.60
2023-01-13T19:34:51.235Z,7.54
2023-01-13T19:37:19.101Z,7.47
2023-01-13T19:39:46.034Z,7.57
2023-01-13T19:42:32.944Z,7.54
2023-01-13T19:45:18.441Z,7.62
2023-01-13T19:47:46.053Z,7.57
2023-01-13T19:50:14.198Z,7.55
2023-01-13T19:52:42.494Z,7.57
2023-01-13T19:55:11.803Z,7.60
2023-01-13T19:57:41.163Z,7.56
2023-01-13T20:00:10.059Z,7.60
2023-01-13T20:02:44.991Z,7.57
2023-01-13T20:05:15.300Z,7.50
2023-01-13T20:07:42.059Z,7.50
2023-01-13T20:10:09.471Z,7.51
2023-01-13T20:12:36.746Z,7.45
2023-01-13T20:15:03.996Z,7.46
2023-01-13T20:17:30.923Z,7.50
2023-01-13T20:19:59.072Z,7.51
2023-01-13T20:22:25.800Z,7.50
2023-01-13T20:24:55.445Z,7.47
2023-01-13T20:27:24.133Z,7.54
2023-01-13T20:30:08.816Z,7.55
2023-01-13T20:32:38.410Z,7.49
2023-01-13T20:38:12.341Z,7.49
2023-01-13T20:40:42.538Z,7.41
2023-01-13T20:43:12.364Z,7.40
2023-01-13T20:45:40.628Z,7.40
2023-01-13T20:48:19.890Z,7.38
2023-01-13T20:51:03.186Z,7.33
2023-01-13T20:53:48.453Z,7.42
2023-01-13T20:56:24.642Z,7.39
2023-01-13T20:58:58.677Z,7.34
2023-01-13T21:01:26.959Z,7.35
2023-01-13T21:03:59.078Z,7.32
2023-01-13T21:06:29.483Z,7.26
2023-01-13T21:08:56.783Z,7.23
2023-01-13T21:11:44.509Z,7.21
2023-01-13T21:14:37.936Z,7.26
2023-01-13T21:17:05.868Z,7.28
2023-01-13T21:19:36.275Z,7.29
2023-01-13T21:22:04.182Z,7.38
2023-01-13T21:24:33.465Z,7.35
2023-01-13T21:27:00.553Z,7.30
2023-01-13T21:29:27.560Z,7.30
2023-01-13T21:31:54.703Z,7.29
2023-01-13T21:34:21.763Z,7.23
2023-01-13T21:36:48.438Z,7.14
2023-01-13T21:39:19.217Z,7.15
2023-01-13T21:42:04.701Z,7.16
2023-01-13T21:44:50.425Z,7.13
2023-01-13T21:47:37.528Z,7.15
2023-01-13T21:50:07.525Z,7.16
2023-01-13T21:52:34.383Z,7.12
2023-01-13T21:55:19.937Z,7.11
2023-01-13T21:57:49.848Z,7.01
2023-01-13T22:00:17.742Z,7.05
2023-01-13T22:02:45.035Z,7.08
2023-01-13T22:05:13.283Z,7.08
2023-01-13T22:07:40.777Z,7.12
2023-01-13T22:10:10.854Z,7.09
2023-01-13T22:12:37.659Z,7.15
2023-01-13T22:15:05.015Z,7.02
2023-01-13T22:17:32.468Z,6.96
2023-01-13T22:20:00.038Z,6.97
2023-01-13T22:22:27.833Z,6.98
2023-01-13T22:24:55.098Z,6.91
2023-01-13T22:27:24.935Z,6.90
2023-01-13T22:29:52.811Z,6.90
2023-01-13T22:32:20.529Z,6.91
2023-01-13T22:34:48.099Z,6.91
2023-01-13T22:37:15.361Z,6.97
2023-01-13T22:39:42.112Z,7.00
2023-01-13T22:42:10.255Z,6.96
2023-01-13T22:44:37.061Z,7.00
2023-01-13T22:47:04.096Z,6.98
2023-01-13T22:49:30.814Z,6.96
2023-01-13T22:51:57.552Z,7.04
2023-01-13T22:54:24.251Z,7.02
2023-01-13T22:56:50.976Z,7.05
2023-01-13T22:59:17.734Z,6.95
2023-01-13T23:01:44.506Z,6.98
2023-01-13T23:04:13.500Z,6.94
2023-01-13T23:06:40.841Z,6.85
2023-01-13T23:09:07.829Z,6.85
2023-01-13T23:11:35.363Z,6.93
2023-01-13T23:14:05.423Z,6.93
2023-01-13T23:16:35.022Z,6.95
2023-01-13T23:19:01.836Z,6.98
2023-01-13T23:21:30.929Z,6.96
2023-01-13T23:23:58.822Z,7.00
2023-01-13T23:26:26.931Z,7.03
2023-01-13T23:28:53.789Z,6.95
2023-01-13T23:31:22.305Z,7.03
2023-01-13T23:33:49.335Z,7.05
2023-01-13T23:36:19.008Z,7.06
2023-01-13T23:38:45.871Z,6.99
2023-01-13T23:41:15.680Z,7.03
2023-01-13T23:43:42.435Z,7.03
2023-01-13T23:46:12.581Z,7.00
2023-01-13T23:48:39.749Z,7.03
2023-01-13T23:51:11.145Z,6.99
2023-01-13T23:53:40.544Z,7.05
2023-01-13T23:56:11.445Z,6.92
2023-01-13T23:58:38.106Z,6.89
